sensor_id;sensor_type;location;lat;lon;timestamp;P1;durP1;ratioP1;P2;durP2;ratioP2
74369;SDS011;62805;44.644;10.942;2022-10-16T00:00:16;30.88;;;17.85;;
74369;SDS011;62805;44.644;10.942;2022-10-16T00:02:41;33.20;;;18.75;;
74369;SDS011;62805;44.644;10.942;2022-10-16T00:05:07;36.20;;;20.37;;
74369;SDS011;62805;44.644;10.942;2022-10-16T00:07:32;28.92;;;17.48;;
74369;SDS011;62805;44.644;10.942;2022-10-16T00:09:58;31.55;;;18.98;;
74369;SDS011;62805;44.644;10.942;2022-10-16T00:12:23;31.88;;;17.00;;
74369;SDS011;62805;44.644;10.942;2022-10-16T00:14:48;37.17;;;21.80;;
74369;SDS011;62805;44.644;10.942;2022-10-16T00:17:14;31.45;;;18.52;;
74369;SDS011;62805;44.644;10.942;2022-10-16T00:19:39;35.50;;;20.70;;
74369;SDS011;62805;44.644;10.942;2022-10-16T00:22:04;36.30;;;20.05;;
74369;SDS011;62805;44.644;10.942;2022-10-16T00:24:30;29.08;;;17.77;;
74369;SDS011;62805;44.644;10.942;2022-10-16T00:26:55;29.83;;;17.80;;
74369;SDS011;62805;44.644;10.942;2022-10-16T00:29:20;32.58;;;18.75;;
74369;SDS011;62805;44.644;10.942;2022-10-16T00:31:46;30.38;;;17.65;;
74369;SDS011;62805;44.644;10.942;2022-10-16T00:34:11;32.65;;;18.13;;
74369;SDS011;62805;44.644;10.942;2022-10-16T00:36:36;33.13;;;18.50;;
74369;SDS011;62805;44.644;10.942;2022-10-16T00:39:02;35.45;;;19.20;;
74369;SDS011;62805;44.644;10.942;2022-10-16T00:41:28;31.65;;;18.45;;
74369;SDS011;62805;44.644;10.942;2022-10-16T00:43:56;30.83;;;18.50;;
74369;SDS011;62805;44.644;10.942;2022-10-16T00:46:27;30.98;;;18.70;;
74369;SDS011;62805;44.644;10.942;2022-10-16T00:51:37;31.17;;;17.50;;
74369;SDS011;62805;44.644;10.942;2022-10-16T00:54:10;34.80;;;17.75;;
74369;SDS011;62805;44.644;10.942;2022-10-16T00:56:37;35.15;;;19.67;;
74369;SDS011;62805;44.644;10.942;2022-10-16T00:59:03;32.60;;;17.58;;
74369;SDS011;62805;44.644;10.942;2022-10-16T01:01:32;31.13;;;18.05;;
74369;SDS011;62805;44.644;10.942;2022-10-16T01:03:58;30.08;;;18.23;;
74369;SDS011;62805;44.644;10.942;2022-10-16T01:06:29;30.55;;;18.00;;
74369;SDS011;62805;44.644;10.942;2022-10-16T01:09:11;32.38;;;17.98;;
74369;SDS011;62805;44.644;10.942;2022-10-16T01:12:01;28.85;;;16.40;;
74369;SDS011;62805;44.644;10.942;2022-10-16T01:16:54;32.15;;;18.05;;
74369;SDS011;62805;44.644;10.942;2022-10-16T01:19:31;30.45;;;17.63;;
74369;SDS011;62805;44.644;10.942;2022-10-16T01:22:19;29.35;;;17.00;;
74369;SDS011;62805;44.644;10.942;2022-10-16T01:24:46;29.48;;;17.83;;
74369;SDS011;62805;44.644;10.942;2022-10-16T01:27:18;33.15;;;19.58;;
74369;SDS011;62805;44.644;10.942;2022-10-16T01:29:49;31.65;;;17.90;;
74369;SDS011;62805;44.644;10.942;2022-10-16T01:32:38;31.98;;;17.58;;
74369;SDS011;62805;44.644;10.942;2022-10-16T01:37:38;33.63;;;20.05;;
74369;SDS011;62805;44.644;10.942;2022-10-16T01:40:08;43.17;;;20.75;;
74369;SDS011;62805;44.644;10.942;2022-10-16T01:42:41;36.00;;;18.88;;
74369;SDS011;62805;44.644;10.942;2022-10-16T01:45:11;30.80;;;17.95;;
74369;SDS011;62805;44.644;10.942;2022-10-16T01:47:39;32.22;;;18.77;;
74369;SDS011;62805;44.644;10.942;2022-10-16T01:50:04;35.20;;;19.42;;
74369;SDS011;62805;44.644;10.942;2022-10-16T01:52:30;33.40;;;20.27;;
74369;SDS011;62805;44.644;10.942;2022-10-16T01:54:57;34.60;;;19.88;;
74369;SDS011;62805;44.644;10.942;2022-10-16T01:57:23;36.15;;;20.27;;
74369;SDS011;62805;44.644;10.942;2022-10-16T01:59:51;33.45;;;18.95;;
74369;SDS011;62805;44.644;10.942;2022-10-16T02:02:20;33.72;;;18.05;;
74369;SDS011;62805;44.644;10.942;2022-10-16T02:04:48;35.33;;;18.88;;
74369;SDS011;62805;44.644;10.942;2022-10-16T02:07:16;33.50;;;18.42;;
74369;SDS011;62805;44.644;10.942;2022-10-16T02:09:41;28.92;;;17.95;;
74369;SDS011;62805;44.644;10.942;2022-10-16T02:15:07;30.42;;;17.88;;
74369;SDS011;62805;44.644;10.942;2022-10-16T02:17:32;30.80;;;18.00;;
74369;SDS011;62805;44.644;10.942;2022-10-16T02:19:58;32.08;;;18.27;;
74369;SDS011;62805;44.644;10.942;2022-10-16T02:22:34;30.27;;;18.40;;
74369;SDS011;62805;44.644;10.942;2022-10-16T02:25:13;34.88;;;19.33;;
74369;SDS011;62805;44.644;10.942;2022-10-16T02:28:03;29.83;;;18.70;;
74369;SDS011;62805;44.644;10.942;2022-10-16T02:30:36;30.10;;;17.52;;
74369;SDS011;62805;44.644;10.942;2022-10-16T02:33:03;33.05;;;18.63;;
74369;SDS011;62805;44.644;10.942;2022-10-16T02:35:32;30.40;;;18.30;;
74369;SDS011;62805;44.644;10.942;2022-10-16T02:37:57;35.08;;;18.70;;
74369;SDS011;62805;44.644;10.942;2022-10-16T02:40:23;34.63;;;18.10;;
74369;SDS011;62805;44.644;10.942;2022-10-16T02:42:50;34.92;;;17.52;;
74369;SDS011;62805;44.644;10.942;2022-10-16T02:45:17;32.47;;;18.48;;
74369;SDS011;62805;44.644;10.942;2022-10-16T02:47:42;33.28;;;17.65;;
74369;SDS011;62805;44.644;10.942;2022-10-16T02:50:09;31.55;;;18.92;;
74369;SDS011;62805;44.644;10.942;2022-10-16T02:52:36;33.47;;;19.23;;
74369;SDS011;62805;44.644;10.942;2022-10-16T02:55:01;35.05;;;19.48;;
74369;SDS011;62805;44.644;10.942;2022-10-16T02:57:27;36.63;;;20.60;;
74369;SDS011;62805;44.644;10.942;2022-10-16T02:59:52;38.85;;;20.88;;
74369;SDS011;62805;44.644;10.942;2022-10-16T03:02:19;38.22;;;20.75;;
74369;SDS011;62805;44.644;10.942;2022-10-16T03:04:44;38.50;;;21.17;;
74369;SDS011;62805;44.644;10.942;2022-10-16T03:07:10;34.90;;;20.65;;
74369;SDS011;62805;44.644;10.942;2022-10-16T03:09:35;37.92;;;20.60;;
74369;SDS011;62805;44.644;10.942;2022-10-16T03:12:01;37.67;;;20.98;;
74369;SDS011;62805;44.644;10.942;2022-10-16T03:14:26;38.35;;;21.30;;
74369;SDS011;62805;44.644;10.942;2022-10-16T03:16:51;38.97;;;20.35;;
74369;SDS011;62805;44.644;10.942;2022-10-16T03:19:17;41.08;;;20.80;;
74369;SDS011;62805;44.644;10.942;2022-10-16T03:21:44;41.08;;;21.90;;
74369;SDS011;62805;44.644;10.942;2022-10-16T03:24:09;43.92;;;23.83;;
74369;SDS011;62805;44.644;10.942;2022-10-16T03:26:34;38.38;;;22.67;;
74369;SDS011;62805;44.644;10.942;2022-10-16T03:29:00;43.28;;;25.70;;
74369;SDS011;62805;44.644;10.942;2022-10-16T03:31:28;49.58;;;24.05;;
74369;SDS011;62805;44.644;10.942;2022-10-16T03:33:54;49.05;;;26.80;;
74369;SDS011;62805;44.644;10.942;2022-10-16T03:36:19;50.72;;;26.48;;
74369;SDS011;62805;44.644;10.942;2022-10-16T03:38:45;45.92;;;25.65;;
74369;SDS011;62805;44.644;10.942;2022-10-16T03:41:10;44.57;;;24.10;;
74369;SDS011;62805;44.644;10.942;2022-10-16T03:43:35;44.83;;;24.90;;
74369;SDS011;62805;44.644;10.942;2022-10-16T03:46:01;45.77;;;25.33;;
74369;SDS011;62805;44.644;10.942;2022-10-16T03:48:27;45.70;;;25.80;;
74369;SDS011;62805;44.644;10.942;2022-10-16T03:50:53;41.53;;;22.85;;
74369;SDS011;62805;44.644;10.942;2022-10-16T03:53:19;42.50;;;23.85;;
74369;SDS011;62805;44.644;10.942;2022-10-16T03:55:45;43.38;;;23.05;;
74369;SDS011;62805;44.644;10.942;2022-10-16T03:58:10;44.95;;;24.30;;
74369;SDS011;62805;44.644;10.942;2022-10-16T04:00:40;45.70;;;24.70;;
74369;SDS011;62805;44.644;10.942;2022-10-16T04:03:09;43.72;;;23.73;;
74369;SDS011;62805;44.644;10.942;2022-10-16T04:05:34;43.92;;;24.50;;
74369;SDS011;62805;44.644;10.942;2022-10-16T04:08:00;47.35;;;23.23;;
74369;SDS011;62805;44.644;10.942;2022-10-16T04:10:27;39.38;;;21.58;;
74369;SDS011;62805;44.644;10.942;2022-10-16T04:12:52;42.63;;;23.52;;
74369;SDS011;62805;44.644;10.942;2022-10-16T04:15:23;37.78;;;21.52;;
74369;SDS011;62805;44.644;10.942;2022-10-16T04:17:49;42.80;;;23.27;;
74369;SDS011;62805;44.644;10.942;2022-10-16T04:20:16;35.33;;;21.10;;
74369;SDS011;62805;44.644;10.942;2022-10-16T04:22:41;39.83;;;21.15;;
74369;SDS011;62805;44.644;10.942;2022-10-16T04:25:06;36.78;;;20.13;;
74369;SDS011;62805;44.644;10.942;2022-10-16T04:27:32;37.22;;;21.88;;
74369;SDS011;62805;44.644;10.942;2022-10-16T04:29:58;39.55;;;21.73;;
74369;SDS011;62805;44.644;10.942;2022-10-16T04:32:24;40.20;;;21.02;;
74369;SDS011;62805;44.644;10.942;2022-10-16T04:34:50;39.47;;;20.17;;
74369;SDS011;62805;44.644;10.942;2022-10-16T04:37:15;37.58;;;20.58;;
74369;SDS011;62805;44.644;10.942;2022-10-16T04:39:40;42.35;;;21.33;;
74369;SDS011;62805;44.644;10.942;2022-10-16T04:42:06;37.97;;;20.20;;
74369;SDS011;62805;44.644;10.942;2022-10-16T04:44:31;35.67;;;21.33;;
74369;SDS011;62805;44.644;10.942;2022-10-16T04:46:56;37.53;;;21.05;;
74369;SDS011;62805;44.644;10.942;2022-10-16T04:49:22;36.92;;;21.25;;
74369;SDS011;62805;44.644;10.942;2022-10-16T04:51:47;40.03;;;20.93;;
74369;SDS011;62805;44.644;10.942;2022-10-16T04:54:13;39.92;;;21.42;;
74369;SDS011;62805;44.644;10.942;2022-10-16T04:56:38;40.67;;;21.40;;
74369;SDS011;62805;44.644;10.942;2022-10-16T04:59:15;38.72;;;21.27;;
74369;SDS011;62805;44.644;10.942;2022-10-16T05:01:41;39.50;;;22.23;;
74369;SDS011;62805;44.644;10.942;2022-10-16T05:04:07;38.08;;;21.30;;
74369;SDS011;62805;44.644;10.942;2022-10-16T05:06:32;39.75;;;22.30;;
74369;SDS011;62805;44.644;10.942;2022-10-16T05:08:58;41.60;;;23.20;;
74369;SDS011;62805;44.644;10.942;2022-10-16T05:11:23;37.78;;;20.95;;
74369;SDS011;62805;44.644;10.942;2022-10-16T05:13:49;38.35;;;20.80;;
74369;SDS011;62805;44.644;10.942;2022-10-16T05:16:14;36.30;;;21.65;;
74369;SDS011;62805;44.644;10.942;2022-10-16T05:18:40;42.72;;;21.77;;
74369;SDS011;62805;44.644;10.942;2022-10-16T05:21:05;35.95;;;20.85;;
74369;SDS011;62805;44.644;10.942;2022-10-16T05:23:31;38.85;;;21.27;;
74369;SDS011;62805;44.644;10.942;2022-10-16T05:25:57;40.38;;;21.02;;
74369;SDS011;62805;44.644;10.942;2022-10-16T05:28:27;40.53;;;21.95;;
74369;SDS011;62805;44.644;10.942;2022-10-16T05:30:53;39.13;;;20.30;;
74369;SDS011;62805;44.644;10.942;2022-10-16T05:33:20;35.30;;;19.48;;
74369;SDS011;62805;44.644;10.942;2022-10-16T05:35:48;34.03;;;18.73;;
74369;SDS011;62805;44.644;10.942;2022-10-16T05:38:14;30.98;;;17.70;;
74369;SDS011;62805;44.644;10.942;2022-10-16T05:40:40;31.25;;;17.50;;
74369;SDS011;62805;44.644;10.942;2022-10-16T05:43:05;31.90;;;17.73;;
74369;SDS011;62805;44.644;10.942;2022-10-16T05:45:31;33.78;;;17.85;;
74369;SDS011;62805;44.644;10.942;2022-10-16T05:47:56;29.07;;;15.97;;
74369;SDS011;62805;44.644;10.942;2022-10-16T05:50:23;28.23;;;16.70;;
74369;SDS011;62805;44.644;10.942;2022-10-16T05:52:48;27.55;;;16.05;;
74369;SDS011;62805;44.644;10.942;2022-10-16T05:55:14;33.33;;;17.00;;
74369;SDS011;62805;44.644;10.942;2022-10-16T06:00:07;28.52;;;15.23;;
74369;SDS011;62805;44.644;10.942;2022-10-16T06:02:32;33.17;;;16.65;;
74369;SDS011;62805;44.644;10.942;2022-10-16T06:04:58;26.92;;;15.13;;
74369;SDS011;62805;44.644;10.942;2022-10-16T06:07:23;32.93;;;15.80;;
74369;SDS011;62805;44.644;10.942;2022-10-16T06:09:52;28.60;;;16.38;;
74369;SDS011;62805;44.644;10.942;2022-10-16T06:12:18;36.72;;;17.27;;
74369;SDS011;62805;44.644;10.942;2022-10-16T06:14:44;32.22;;;15.60;;
74369;SDS011;62805;44.644;10.942;2022-10-16T06:17:12;31.80;;;16.23;;
74369;SDS011;62805;44.644;10.942;2022-10-16T06:19:38;33.45;;;16.80;;
74369;SDS011;62805;44.644;10.942;2022-10-16T06:22:03;29.02;;;15.55;;
74369;SDS011;62805;44.644;10.942;2022-10-16T06:24:29;27.70;;;14.95;;
74369;SDS011;62805;44.644;10.942;2022-10-16T06:26:56;29.38;;;15.05;;
74369;SDS011;62805;44.644;10.942;2022-10-16T06:29:21;27.55;;;14.82;;
74369;SDS011;62805;44.644;10.942;2022-10-16T06:31:47;27.25;;;14.68;;
74369;SDS011;62805;44.644;10.942;2022-10-16T06:34:12;27.98;;;15.50;;
74369;SDS011;62805;44.644;10.942;2022-10-16T06:36:38;28.40;;;15.77;;
74369;SDS011;62805;44.644;10.942;2022-10-16T06:39:04;33.58;;;17.80;;
74369;SDS011;62805;44.644;10.942;2022-10-16T06:41:31;36.28;;;19.27;;
74369;SDS011;62805;44.644;10.942;2022-10-16T06:43:57;47.88;;;23.85;;
74369;SDS011;62805;44.644;10.942;2022-10-16T06:46:23;44.27;;;21.43;;
74369;SDS011;62805;44.644;10.942;2022-10-16T06:51:15;42.53;;;20.37;;
74369;SDS011;62805;44.644;10.942;2022-10-16T06:53:43;51.88;;;25.23;;
74369;SDS011;62805;44.644;10.942;2022-10-16T06:56:11;49.38;;;24.65;;
74369;SDS011;62805;44.644;10.942;2022-10-16T06:58:43;54.65;;;26.85;;
74369;SDS011;62805;44.644;10.942;2022-10-16T07:01:10;57.38;;;26.13;;
74369;SDS011;62805;44.644;10.942;2022-10-16T07:03:37;52.15;;;25.38;;
74369;SDS011;62805;44.644;10.942;2022-10-16T07:06:03;54.78;;;27.90;;
74369;SDS011;62805;44.644;10.942;2022-10-16T07:08:31;48.78;;;25.40;;
74369;SDS011;62805;44.644;10.942;2022-10-16T07:10:58;52.90;;;25.70;;
74369;SDS011;62805;44.644;10.942;2022-10-16T07:13:27;49.17;;;25.50;;
74369;SDS011;62805;44.644;10.942;2022-10-16T07:15:52;50.20;;;24.98;;
74369;SDS011;62805;44.644;10.942;2022-10-16T07:18:18;43.58;;;23.85;;
74369;SDS011;62805;44.644;10.942;2022-10-16T07:20:43;46.40;;;23.85;;
74369;SDS011;62805;44.644;10.942;2022-10-16T07:23:08;44.50;;;23.17;;
74369;SDS011;62805;44.644;10.942;2022-10-16T07:25:34;41.60;;;22.08;;
74369;SDS011;62805;44.644;10.942;2022-10-16T07:27:59;40.67;;;20.50;;
74369;SDS011;62805;44.644;10.942;2022-10-16T07:30:24;39.03;;;21.83;;
74369;SDS011;62805;44.644;10.942;2022-10-16T07:32:50;42.00;;;21.27;;
74369;SDS011;62805;44.644;10.942;2022-10-16T07:35:15;42.90;;;21.83;;
74369;SDS011;62805;44.644;10.942;2022-10-16T07:37:43;37.72;;;21.65;;
74369;SDS011;62805;44.644;10.942;2022-10-16T07:40:10;35.33;;;19.83;;
74369;SDS011;62805;44.644;10.942;2022-10-16T07:42:36;39.45;;;21.70;;
74369;SDS011;62805;44.644;10.942;2022-10-16T07:45:02;36.60;;;20.08;;
74369;SDS011;62805;44.644;10.942;2022-10-16T07:47:27;35.97;;;21.17;;
74369;SDS011;62805;44.644;10.942;2022-10-16T07:49:53;42.05;;;21.25;;
74369;SDS011;62805;44.644;10.942;2022-10-16T07:52:19;41.25;;;22.10;;
74369;SDS011;62805;44.644;10.942;2022-10-16T07:54:45;38.25;;;20.92;;
74369;SDS011;62805;44.644;10.942;2022-10-16T07:57:10;36.13;;;21.10;;
74369;SDS011;62805;44.644;10.942;2022-10-16T07:59:37;38.35;;;21.92;;
74369;SDS011;62805;44.644;10.942;2022-10-16T08:02:03;36.58;;;20.48;;
74369;SDS011;62805;44.644;10.942;2022-10-16T08:04:30;35.72;;;19.95;;
74369;SDS011;62805;44.644;10.942;2022-10-16T08:06:55;38.35;;;21.83;;
74369;SDS011;62805;44.644;10.942;2022-10-16T08:09:23;35.63;;;20.98;;
74369;SDS011;62805;44.644;10.942;2022-10-16T08:11:48;43.17;;;22.98;;
74369;SDS011;62805;44.644;10.942;2022-10-16T08:14:15;39.03;;;22.02;;
74369;SDS011;62805;44.644;10.942;2022-10-16T08:16:40;35.55;;;22.02;;
74369;SDS011;62805;44.644;10.942;2022-10-16T08:19:05;38.45;;;20.85;;
74369;SDS011;62805;44.644;10.942;2022-10-16T08:21:31;42.55;;;23.55;;
74369;SDS011;62805;44.644;10.942;2022-10-16T08:23:56;37.22;;;20.90;;
74369;SDS011;62805;44.644;10.942;2022-10-16T08:26:22;35.55;;;21.48;;
74369;SDS011;62805;44.644;10.942;2022-10-16T08:28:49;43.70;;;23.50;;
74369;SDS011;62805;44.644;10.942;2022-10-16T08:31:17;39.70;;;21.73;;
74369;SDS011;62805;44.644;10.942;2022-10-16T08:33:44;37.72;;;21.83;;
74369;SDS011;62805;44.644;10.942;2022-10-16T08:36:12;37.97;;;20.50;;
74369;SDS011;62805;44.644;10.942;2022-10-16T08:38:37;36.15;;;21.30;;
74369;SDS011;62805;44.644;10.942;2022-10-16T08:46:20;40.55;;;22.75;;
74369;SDS011;62805;44.644;10.942;2022-10-16T08:48:51;38.67;;;20.20;;
74369;SDS011;62805;44.644;10.942;2022-10-16T08:51:21;34.63;;;20.80;;
74369;SDS011;62805;44.644;10.942;2022-10-16T08:56:20;37.38;;;21.35;;
74369;SDS011;62805;44.644;10.942;2022-10-16T08:58:46;39.05;;;22.52;;
74369;SDS011;62805;44.644;10.942;2022-10-16T09:01:13;33.70;;;20.55;;
74369;SDS011;62805;44.644;10.942;2022-10-16T09:08:56;35.75;;;21.17;;
74369;SDS011;62805;44.644;10.942;2022-10-16T09:22:44;36.03;;;21.58;;
74369;SDS011;62805;44.644;10.942;2022-10-16T09:25:14;40.28;;;21.98;;
74369;SDS011;62805;44.644;10.942;2022-10-16T09:27:41;39.53;;;21.20;;
74369;SDS011;62805;44.644;10.942;2022-10-16T09:30:14;37.20;;;21.63;;
74369;SDS011;62805;44.644;10.942;2022-10-16T09:32:44;40.67;;;22.08;;
74369;SDS011;62805;44.644;10.942;2022-10-16T09:38:03;37.10;;;21.25;;
74369;SDS011;62805;44.644;10.942;2022-10-16T09:40:29;43.28;;;23.23;;
74369;SDS011;62805;44.644;10.942;2022-10-16T09:45:55;38.92;;;21.92;;
74369;SDS011;62805;44.644;10.942;2022-10-16T09:48:21;36.10;;;21.73;;
74369;SDS011;62805;44.644;10.942;2022-10-16T09:51:00;36.25;;;22.48;;
74369;SDS011;62805;44.644;10.942;2022-10-16T09:53:48;33.55;;;21.05;;
74369;SDS011;62805;44.644;10.942;2022-10-16T09:56:32;33.58;;;20.27;;
74369;SDS011;62805;44.644;10.942;2022-10-16T09:59:03;34.45;;;20.38;;
74369;SDS011;62805;44.644;10.942;2022-10-16T10:01:39;36.72;;;21.50;;
74369;SDS011;62805;44.644;10.942;2022-10-16T10:04:06;40.38;;;21.92;;
74369;SDS011;62805;44.644;10.942;2022-10-16T10:06:34;35.20;;;22.92;;
74369;SDS011;62805;44.644;10.942;2022-10-16T10:09:22;37.10;;;21.35;;
74369;SDS011;62805;44.644;10.942;2022-10-16T10:14:31;39.47;;;21.95;;
74369;SDS011;62805;44.644;10.942;2022-10-16T10:17:06;35.85;;;20.70;;
74369;SDS011;62805;44.644;10.942;2022-10-16T10:19:40;37.42;;;20.38;;
74369;SDS011;62805;44.644;10.942;2022-10-16T10:28:10;36.45;;;19.27;;
74369;SDS011;62805;44.644;10.942;2022-10-16T10:30:20;38.58;;;20.35;;
74369;SDS011;62805;44.644;10.942;2022-10-16T10:33:12;32.20;;;20.02;;
74369;SDS011;62805;44.644;10.942;2022-10-16T10:51:13;28.67;;;16.30;;
74369;SDS011;62805;44.644;10.942;2022-10-16T10:56:42;30.45;;;17.85;;
74369;SDS011;62805;44.644;10.942;2022-10-16T10:59:21;26.83;;;16.63;;
74369;SDS011;62805;44.644;10.942;2022-10-16T11:07:43;23.88;;;14.07;;
74369;SDS011;62805;44.644;10.942;2022-10-16T11:10:16;20.85;;;13.00;;
74369;SDS011;62805;44.644;10.942;2022-10-16T11:12:46;23.45;;;14.48;;
74369;SDS011;62805;44.644;10.942;2022-10-16T11:15:28;27.92;;;15.00;;
74369;SDS011;62805;44.644;10.942;2022-10-16T11:18:02;24.50;;;16.23;;
74369;SDS011;62805;44.644;10.942;2022-10-16T11:20:37;25.10;;;14.70;;
74369;SDS011;62805;44.644;10.942;2022-10-16T11:25:37;26.48;;;16.33;;
74369;SDS011;62805;44.644;10.942;2022-10-16T11:41:28;27.88;;;16.58;;
74369;SDS011;62805;44.644;10.942;2022-10-16T11:44:12;24.23;;;14.77;;
74369;SDS011;62805;44.644;10.942;2022-10-16T11:46:52;25.25;;;15.00;;
74369;SDS011;62805;44.644;10.942;2022-10-16T11:49:26;24.63;;;15.45;;
74369;SDS011;62805;44.644;10.942;2022-10-16T11:54:22;27.47;;;16.40;;
74369;SDS011;62805;44.644;10.942;2022-10-16T11:56:53;26.92;;;15.18;;
74369;SDS011;62805;44.644;10.942;2022-10-16T11:59:29;23.00;;;13.98;;
74369;SDS011;62805;44.644;10.942;2022-10-16T12:04:43;23.33;;;12.52;;
74369;SDS011;62805;44.644;10.942;2022-10-16T12:07:13;25.52;;;16.77;;
74369;SDS011;62805;44.644;10.942;2022-10-16T12:09:42;20.08;;;11.73;;
74369;SDS011;62805;44.644;10.942;2022-10-16T12:12:27;27.98;;;16.35;;
74369;SDS011;62805;44.644;10.942;2022-10-16T12:15:03;28.48;;;15.82;;
74369;SDS011;62805;44.644;10.942;2022-10-16T12:17:55;21.20;;;13.27;;
74369;SDS011;62805;44.644;10.942;2022-10-16T12:20:32;20.88;;;12.15;;
74369;SDS011;62805;44.644;10.942;2022-10-16T12:23:02;20.75;;;11.55;;
74369;SDS011;62805;44.644;10.942;2022-10-16T12:25:33;20.05;;;11.27;;
74369;SDS011;62805;44.644;10.942;2022-10-16T12:28:04;19.77;;;9.95;;
74369;SDS011;62805;44.644;10.942;2022-10-16T12:30:32;14.70;;;8.63;;
74369;SDS011;62805;44.644;10.942;2022-10-16T12:33:00;13.30;;;8.57;;
74369;SDS011;62805;44.644;10.942;2022-10-16T12:35:46;20.75;;;8.80;;
74369;SDS011;62805;44.644;10.942;2022-10-16T12:40:39;16.80;;;9.05;;
74369;SDS011;62805;44.644;10.942;2022-10-16T12:45:46;12.13;;;7.75;;
74369;SDS011;62805;44.644;10.942;2022-10-16T12:48:19;20.10;;;8.35;;
74369;SDS011;62805;44.644;10.942;2022-10-16T12:50:46;11.15;;;7.32;;
74369;SDS011;62805;44.644;10.942;2022-10-16T12:53:22;14.32;;;7.82;;
74369;SDS011;62805;44.644;10.942;2022-10-16T12:55:54;15.13;;;7.53;;
74369;SDS011;62805;44.644;10.942;2022-10-16T13:01:28;12.55;;;7.78;;
74369;SDS011;62805;44.644;10.942;2022-10-16T13:06:45;12.77;;;8.30;;
74369;SDS011;62805;44.644;10.942;2022-10-16T13:17:18;15.60;;;8.20;;
74369;SDS011;62805;44.644;10.942;2022-10-16T13:20:26;13.55;;;8.15;;
74369;SDS011;62805;44.644;10.942;2022-10-16T13:25:32;22.75;;;13.05;;
74369;SDS011;62805;44.644;10.942;2022-10-16T13:28:03;25.15;;;15.27;;
74369;SDS011;62805;44.644;10.942;2022-10-16T13:30:39;23.52;;;14.13;;
74369;SDS011;62805;44.644;10.942;2022-10-16T13:33:15;20.27;;;14.18;;
74369;SDS011;62805;44.644;10.942;2022-10-16T13:35:50;21.60;;;14.00;;
74369;SDS011;62805;44.644;10.942;2022-10-16T13:38:20;27.38;;;14.80;;
74369;SDS011;62805;44.644;10.942;2022-10-16T13:40:51;20.95;;;13.88;;
74369;SDS011;62805;44.644;10.942;2022-10-16T13:43:27;19.90;;;12.02;;
74369;SDS011;62805;44.644;10.942;2022-10-16T13:46:01;16.00;;;8.65;;
74369;SDS011;62805;44.644;10.942;2022-10-16T13:48:29;10.95;;;8.00;;
74369;SDS011;62805;44.644;10.942;2022-10-16T13:51:05;18.02;;;8.40;;
74369;SDS011;62805;44.644;10.942;2022-10-16T13:53:39;16.95;;;11.98;;
74369;SDS011;62805;44.644;10.942;2022-10-16T13:56:06;22.33;;;13.88;;
74369;SDS011;62805;44.644;10.942;2022-10-16T13:58:35;22.35;;;14.38;;
74369;SDS011;62805;44.644;10.942;2022-10-16T14:01:02;29.63;;;16.35;;
74369;SDS011;62805;44.644;10.942;2022-10-16T14:03:30;22.85;;;13.73;;
74369;SDS011;62805;44.644;10.942;2022-10-16T14:05:59;24.00;;;14.02;;
74369;SDS011;62805;44.644;10.942;2022-10-16T14:08:26;23.98;;;13.93;;
74369;SDS011;62805;44.644;10.942;2022-10-16T14:10:53;18.85;;;12.75;;
74369;SDS011;62805;44.644;10.942;2022-10-16T14:13:27;21.63;;;12.55;;
74369;SDS011;62805;44.644;10.942;2022-10-16T14:15:55;21.08;;;12.90;;
74369;SDS011;62805;44.644;10.942;2022-10-16T14:18:24;25.55;;;12.90;;
74369;SDS011;62805;44.644;10.942;2022-10-16T14:20:50;27.15;;;16.05;;
74369;SDS011;62805;44.644;10.942;2022-10-16T14:23:20;16.60;;;10.25;;
74369;SDS011;62805;44.644;10.942;2022-10-16T14:25:46;19.77;;;10.88;;
74369;SDS011;62805;44.644;10.942;2022-10-16T14:28:19;16.95;;;9.70;;
74369;SDS011;62805;44.644;10.942;2022-10-16T14:33:32;15.25;;;9.90;;
74369;SDS011;62805;44.644;10.942;2022-10-16T14:38:24;17.23;;;10.80;;
74369;SDS011;62805;44.644;10.942;2022-10-16T14:40:50;14.38;;;10.20;;
74369;SDS011;62805;44.644;10.942;2022-10-16T14:43:20;18.02;;;10.38;;
74369;SDS011;62805;44.644;10.942;2022-10-16T14:45:50;16.50;;;9.52;;
74369;SDS011;62805;44.644;10.942;2022-10-16T14:48:17;13.48;;;9.25;;
74369;SDS011;62805;44.644;10.942;2022-10-16T14:50:44;14.82;;;9.63;;
74369;SDS011;62805;44.644;10.942;2022-10-16T14:53:11;13.70;;;9.23;;
74369;SDS011;62805;44.644;10.942;2022-10-16T14:55:37;12.45;;;8.75;;
74369;SDS011;62805;44.644;10.942;2022-10-16T14:58:03;12.13;;;8.23;;
74369;SDS011;62805;44.644;10.942;2022-10-16T15:00:28;17.08;;;9.25;;
74369;SDS011;62805;44.644;10.942;2022-10-16T15:02:54;14.05;;;8.10;;
74369;SDS011;62805;44.644;10.942;2022-10-16T15:07:50;12.38;;;8.50;;
74369;SDS011;62805;44.644;10.942;2022-10-16T15:10:16;13.10;;;8.40;;
74369;SDS011;62805;44.644;10.942;2022-10-16T15:15:23;15.10;;;7.97;;
74369;SDS011;62805;44.644;10.942;2022-10-16T15:17:52;17.00;;;9.30;;
74369;SDS011;62805;44.644;10.942;2022-10-16T15:20:21;17.58;;;9.35;;
74369;SDS011;62805;44.644;10.942;2022-10-16T15:22:47;15.60;;;9.38;;
74369;SDS011;62805;44.644;10.942;2022-10-16T15:27:59;17.95;;;11.35;;
74369;SDS011;62805;44.644;10.942;2022-10-16T15:30:25;18.65;;;11.10;;
74369;SDS011;62805;44.644;10.942;2022-10-16T15:32:51;18.40;;;10.82;;
74369;SDS011;62805;44.644;10.942;2022-10-16T15:35:17;21.23;;;11.60;;
74369;SDS011;62805;44.644;10.942;2022-10-16T15:37:42;18.30;;;11.60;;
74369;SDS011;62805;44.644;10.942;2022-10-16T15:40:09;17.58;;;10.73;;
74369;SDS011;62805;44.644;10.942;2022-10-16T15:42:35;18.05;;;10.73;;
74369;SDS011;62805;44.644;10.942;2022-10-16T15:45:01;16.10;;;11.27;;
74369;SDS011;62805;44.644;10.942;2022-10-16T15:47:28;18.35;;;10.77;;
74369;SDS011;62805;44.644;10.942;2022-10-16T15:49:53;16.33;;;10.75;;
74369;SDS011;62805;44.644;10.942;2022-10-16T15:52:18;20.77;;;10.93;;
74369;SDS011;62805;44.644;10.942;2022-10-16T15:54:44;17.30;;;10.45;;
74369;SDS011;62805;44.644;10.942;2022-10-16T15:57:09;15.88;;;9.68;;
74369;SDS011;62805;44.644;10.942;2022-10-16T15:59:35;19.48;;;10.98;;
74369;SDS011;62805;44.644;10.942;2022-10-16T16:02:00;21.05;;;11.10;;
74369;SDS011;62805;44.644;10.942;2022-10-16T16:04:26;23.05;;;11.70;;
74369;SDS011;62805;44.644;10.942;2022-10-16T16:06:51;19.20;;;10.88;;
74369;SDS011;62805;44.644;10.942;2022-10-16T16:09:17;27.33;;;14.10;;
74369;SDS011;62805;44.644;10.942;2022-10-16T16:11:43;34.60;;;20.45;;
74369;SDS011;62805;44.644;10.942;2022-10-16T16:14:12;20.42;;;11.63;;
74369;SDS011;62805;44.644;10.942;2022-10-16T16:16:38;20.10;;;10.82;;
74369;SDS011;62805;44.644;10.942;2022-10-16T16:19:04;18.77;;;9.48;;
74369;SDS011;62805;44.644;10.942;2022-10-16T16:21:31;15.85;;;9.77;;
74369;SDS011;62805;44.644;10.942;2022-10-16T16:24:00;17.67;;;9.80;;
74369;SDS011;62805;44.644;10.942;2022-10-16T16:26:28;21.85;;;9.38;;
74369;SDS011;62805;44.644;10.942;2022-10-16T16:28:59;20.48;;;11.50;;
74369;SDS011;62805;44.644;10.942;2022-10-16T16:31:25;16.20;;;9.98;;